09/06/05 - 20h:40mDenunciar

Embraer A-29A Super Tucano

METAR SBPB 092300Z 11005KT 9999 FEW020 SCT100 BKN300 27/23 Q1013=

Comentários (1)

casemod
1. casemod 9/06/05 21:16

muito show cmte
quer uma sugestao
assina o flogao pra tu ter um monte de acesso, teu flog é massa pow .. mas
nao é divulgado saka... flw

Fotos postadas a mais de 15 dias não podem receber comentários.